sensor_id;sensor_type;location;lat;lon;timestamp;P1;durP1;ratioP1;P2;durP2;ratioP2
74821;SDS011;63353;48.702;8.884;2023-12-07T00:00:49;1999.90;;;999.90;;
74821;SDS011;63353;48.702;8.884;2023-12-07T00:03:14;1999.90;;;999.90;;
74821;SDS011;63353;48.702;8.884;2023-12-07T00:05:40;1999.90;;;999.90;;
74821;SDS011;63353;48.702;8.884;2023-12-07T00:08:09;1999.90;;;999.90;;
74821;SDS011;63353;48.702;8.884;2023-12-07T00:10:35;1999.90;;;999.90;;
74821;SDS011;63353;48.702;8.884;2023-12-07T00:13:01;1999.90;;;999.90;;
74821;SDS011;63353;48.702;8.884;2023-12-07T00:15:27;1999.90;;;999.90;;
74821;SDS011;63353;48.702;8.884;2023-12-07T00:17:53;1999.90;;;999.90;;
74821;SDS011;63353;48.702;8.884;2023-12-07T00:20:19;1999.90;;;999.90;;
74821;SDS011;63353;48.702;8.884;2023-12-07T00:22:44;1999.90;;;999.90;;
74821;SDS011;63353;48.702;8.884;2023-12-07T00:25:10;1999.90;;;999.90;;
74821;SDS011;63353;48.702;8.884;2023-12-07T00:27:36;1999.90;;;999.90;;
74821;SDS011;63353;48.702;8.884;2023-12-07T00:30:02;1999.90;;;999.90;;
74821;SDS011;63353;48.702;8.884;2023-12-07T00:32:28;1999.90;;;999.90;;
74821;SDS011;63353;48.702;8.884;2023-12-07T00:34:54;1999.90;;;999.90;;
74821;SDS011;63353;48.702;8.884;2023-12-07T00:37:20;1999.90;;;999.90;;
74821;SDS011;63353;48.702;8.884;2023-12-07T00:39:45;1999.90;;;999.90;;
74821;SDS011;63353;48.702;8.884;2023-12-07T00:42:11;1999.90;;;999.90;;
74821;SDS011;63353;48.702;8.884;2023-12-07T00:44:40;1999.90;;;999.90;;
74821;SDS011;63353;48.702;8.884;2023-12-07T00:47:06;1999.90;;;999.90;;
74821;SDS011;63353;48.702;8.884;2023-12-07T00:49:31;1999.90;;;999.90;;
74821;SDS011;63353;48.702;8.884;2023-12-07T00:51:57;1999.90;;;999.90;;
74821;SDS011;63353;48.702;8.884;2023-12-07T00:54:23;1999.90;;;999.90;;
74821;SDS011;63353;48.702;8.884;2023-12-07T00:56:48;1999.90;;;999.90;;
74821;SDS011;63353;48.702;8.884;2023-12-07T00:59:14;1999.90;;;999.90;;
74821;SDS011;63353;48.702;8.884;2023-12-07T01:01:39;1999.90;;;999.90;;
74821;SDS011;63353;48.702;8.884;2023-12-07T01:04:05;1999.90;;;999.90;;
74821;SDS011;63353;48.702;8.884;2023-12-07T01:06:31;1999.90;;;999.90;;
74821;SDS011;63353;48.702;8.884;2023-12-07T01:08:57;1999.90;;;999.90;;
74821;SDS011;63353;48.702;8.884;2023-12-07T01:11:22;1999.90;;;999.90;;
74821;SDS011;63353;48.702;8.884;2023-12-07T01:13:48;1999.90;;;999.90;;
74821;SDS011;63353;48.702;8.884;2023-12-07T01:16:14;1999.90;;;999.90;;
74821;SDS011;63353;48.702;8.884;2023-12-07T01:18:39;1999.90;;;999.90;;
74821;SDS011;63353;48.702;8.884;2023-12-07T01:21:05;1999.90;;;999.90;;
74821;SDS011;63353;48.702;8.884;2023-12-07T01:23:31;1999.90;;;999.90;;
74821;SDS011;63353;48.702;8.884;2023-12-07T01:25:57;1999.90;;;999.90;;
74821;SDS011;63353;48.702;8.884;2023-12-07T01:28:25;1999.90;;;999.90;;
74821;SDS011;63353;48.702;8.884;2023-12-07T01:30:50;1999.90;;;999.90;;
74821;SDS011;63353;48.702;8.884;2023-12-07T01:33:16;1999.90;;;999.90;;
74821;SDS011;63353;48.702;8.884;2023-12-07T01:35:42;1999.90;;;999.90;;
74821;SDS011;63353;48.702;8.884;2023-12-07T01:38:08;1999.90;;;999.90;;
74821;SDS011;63353;48.702;8.884;2023-12-07T01:40:33;1999.90;;;999.90;;
74821;SDS011;63353;48.702;8.884;2023-12-07T01:42:59;1999.90;;;999.90;;
74821;SDS011;63353;48.702;8.884;2023-12-07T01:45:25;1999.90;;;999.90;;
74821;SDS011;63353;48.702;8.884;2023-12-07T01:47:51;1999.90;;;999.90;;
74821;SDS011;63353;48.702;8.884;2023-12-07T01:50:18;1999.90;;;999.90;;
74821;SDS011;63353;48.702;8.884;2023-12-07T01:52:49;1999.90;;;999.90;;
74821;SDS011;63353;48.702;8.884;2023-12-07T01:55:22;1999.90;;;999.90;;
74821;SDS011;63353;48.702;8.884;2023-12-07T01:57:48;1999.90;;;999.90;;
74821;SDS011;63353;48.702;8.884;2023-12-07T02:00:14;1999.90;;;999.90;;
74821;SDS011;63353;48.702;8.884;2023-12-07T02:02:41;1999.90;;;999.90;;
74821;SDS011;63353;48.702;8.884;2023-12-07T02:05:08;1999.90;;;999.90;;
74821;SDS011;63353;48.702;8.884;2023-12-07T02:07:34;1999.90;;;999.90;;
74821;SDS011;63353;48.702;8.884;2023-12-07T02:09:59;1999.90;;;999.90;;
74821;SDS011;63353;48.702;8.884;2023-12-07T02:12:25;1999.90;;;999.90;;
74821;SDS011;63353;48.702;8.884;2023-12-07T02:14:54;1999.90;;;999.90;;
74821;SDS011;63353;48.702;8.884;2023-12-07T02:17:28;1999.90;;;999.90;;
74821;SDS011;63353;48.702;8.884;2023-12-07T02:22:37;1999.90;;;999.90;;
74821;SDS011;63353;48.702;8.884;2023-12-07T02:25:14;1999.90;;;999.90;;
74821;SDS011;63353;48.702;8.884;2023-12-07T02:27:43;1999.90;;;999.90;;
74821;SDS011;63353;48.702;8.884;2023-12-07T02:30:12;1999.90;;;999.90;;
74821;SDS011;63353;48.702;8.884;2023-12-07T02:32:39;1999.90;;;999.90;;
74821;SDS011;63353;48.702;8.884;2023-12-07T02:35:06;1999.90;;;999.90;;
74821;SDS011;63353;48.702;8.884;2023-12-07T02:37:46;1999.90;;;999.90;;
74821;SDS011;63353;48.702;8.884;2023-12-07T02:40:16;1999.90;;;999.90;;
74821;SDS011;63353;48.702;8.884;2023-12-07T02:42:45;1999.90;;;999.90;;
74821;SDS011;63353;48.702;8.884;2023-12-07T02:45:12;1999.90;;;999.90;;
74821;SDS011;63353;48.702;8.884;2023-12-07T02:47:39;1999.90;;;999.90;;
74821;SDS011;63353;48.702;8.884;2023-12-07T02:50:05;1999.90;;;999.90;;
74821;SDS011;63353;48.702;8.884;2023-12-07T02:52:32;1999.90;;;999.90;;
74821;SDS011;63353;48.702;8.884;2023-12-07T02:54:58;1999.90;;;999.90;;
74821;SDS011;63353;48.702;8.884;2023-12-07T02:57:24;1999.90;;;999.90;;
74821;SDS011;63353;48.702;8.884;2023-12-07T02:59:50;1999.90;;;999.90;;
74821;SDS011;63353;48.702;8.884;2023-12-07T03:02:15;1999.90;;;999.90;;
74821;SDS011;63353;48.702;8.884;2023-12-07T03:04:41;1999.90;;;999.90;;
74821;SDS011;63353;48.702;8.884;2023-12-07T03:07:07;1999.90;;;999.90;;
74821;SDS011;63353;48.702;8.884;2023-12-07T03:09:32;1999.90;;;999.90;;
74821;SDS011;63353;48.702;8.884;2023-12-07T03:11:58;1999.90;;;999.90;;
74821;SDS011;63353;48.702;8.884;2023-12-07T03:14:23;1999.90;;;999.90;;
74821;SDS011;63353;48.702;8.884;2023-12-07T03:16:49;1999.90;;;999.90;;
74821;SDS011;63353;48.702;8.884;2023-12-07T03:19:15;1999.90;;;999.90;;
74821;SDS011;63353;48.702;8.884;2023-12-07T03:21:40;1999.90;;;999.90;;
74821;SDS011;63353;48.702;8.884;2023-12-07T03:24:08;1999.90;;;999.90;;
74821;SDS011;63353;48.702;8.884;2023-12-07T03:26:34;1999.90;;;999.90;;
74821;SDS011;63353;48.702;8.884;2023-12-07T03:29:00;1999.90;;;999.90;;
74821;SDS011;63353;48.702;8.884;2023-12-07T03:31:26;1999.90;;;999.90;;
74821;SDS011;63353;48.702;8.884;2023-12-07T03:33:53;1999.90;;;999.90;;
74821;SDS011;63353;48.702;8.884;2023-12-07T03:36:19;1999.90;;;999.90;;
74821;SDS011;63353;48.702;8.884;2023-12-07T03:38:44;1999.90;;;999.90;;
74821;SDS011;63353;48.702;8.884;2023-12-07T03:41:10;1999.90;;;999.90;;
74821;SDS011;63353;48.702;8.884;2023-12-07T03:43:35;1999.90;;;999.90;;
74821;SDS011;63353;48.702;8.884;2023-12-07T03:46:04;1999.90;;;999.90;;
74821;SDS011;63353;48.702;8.884;2023-12-07T03:48:31;1999.90;;;999.90;;
74821;SDS011;63353;48.702;8.884;2023-12-07T03:50:58;1999.90;;;999.90;;
74821;SDS011;63353;48.702;8.884;2023-12-07T03:53:23;1999.90;;;999.90;;
74821;SDS011;63353;48.702;8.884;2023-12-07T03:55:49;1999.90;;;999.90;;
74821;SDS011;63353;48.702;8.884;2023-12-07T03:58:15;1999.90;;;999.90;;
74821;SDS011;63353;48.702;8.884;2023-12-07T04:00:40;1999.90;;;999.90;;
74821;SDS011;63353;48.702;8.884;2023-12-07T04:03:06;1999.90;;;999.90;;
74821;SDS011;63353;48.702;8.884;2023-12-07T04:05:32;1999.90;;;999.90;;
74821;SDS011;63353;48.702;8.884;2023-12-07T04:07:58;1999.90;;;999.90;;
74821;SDS011;63353;48.702;8.884;2023-12-07T04:10:24;1999.90;;;999.90;;
74821;SDS011;63353;48.702;8.884;2023-12-07T04:12:50;1999.90;;;999.90;;
74821;SDS011;63353;48.702;8.884;2023-12-07T04:15:17;1999.90;;;999.90;;
74821;SDS011;63353;48.702;8.884;2023-12-07T04:17:44;1999.90;;;999.90;;
74821;SDS011;63353;48.702;8.884;2023-12-07T04:20:09;1999.90;;;999.90;;
74821;SDS011;63353;48.702;8.884;2023-12-07T04:22:35;1999.90;;;999.90;;
74821;SDS011;63353;48.702;8.884;2023-12-07T04:25:01;1999.90;;;999.90;;
74821;SDS011;63353;48.702;8.884;2023-12-07T04:27:27;1999.90;;;999.90;;
74821;SDS011;63353;48.702;8.884;2023-12-07T04:29:52;1999.90;;;999.90;;
74821;SDS011;63353;48.702;8.884;2023-12-07T04:32:19;1999.90;;;999.90;;
74821;SDS011;63353;48.702;8.884;2023-12-07T04:34:44;1999.90;;;999.90;;
74821;SDS011;63353;48.702;8.884;2023-12-07T04:37:10;1999.90;;;999.90;;
74821;SDS011;63353;48.702;8.884;2023-12-07T04:39:35;1999.90;;;999.90;;
74821;SDS011;63353;48.702;8.884;2023-12-07T04:42:02;1999.90;;;999.90;;
74821;SDS011;63353;48.702;8.884;2023-12-07T04:44:28;1999.90;;;999.90;;
74821;SDS011;63353;48.702;8.884;2023-12-07T04:46:53;1999.90;;;999.90;;
74821;SDS011;63353;48.702;8.884;2023-12-07T04:49:19;1999.90;;;999.90;;
74821;SDS011;63353;48.702;8.884;2023-12-07T04:51:45;1999.90;;;999.90;;
74821;SDS011;63353;48.702;8.884;2023-12-07T04:54:14;1999.90;;;999.90;;
74821;SDS011;63353;48.702;8.884;2023-12-07T04:56:40;1999.90;;;999.90;;
74821;SDS011;63353;48.702;8.884;2023-12-07T04:59:06;1999.90;;;999.90;;
74821;SDS011;63353;48.702;8.884;2023-12-07T05:01:33;1999.90;;;999.90;;
74821;SDS011;63353;48.702;8.884;2023-12-07T05:04:00;1999.90;;;999.90;;
74821;SDS011;63353;48.702;8.884;2023-12-07T05:06:28;1999.90;;;999.90;;
74821;SDS011;63353;48.702;8.884;2023-12-07T05:08:57;1999.90;;;999.90;;
74821;SDS011;63353;48.702;8.884;2023-12-07T05:11:23;1999.90;;;999.90;;
74821;SDS011;63353;48.702;8.884;2023-12-07T05:13:49;1999.90;;;999.90;;
74821;SDS011;63353;48.702;8.884;2023-12-07T05:16:15;1999.90;;;999.90;;
74821;SDS011;63353;48.702;8.884;2023-12-07T05:18:40;1999.90;;;999.90;;
74821;SDS011;63353;48.702;8.884;2023-12-07T05:21:06;1999.90;;;999.90;;
74821;SDS011;63353;48.702;8.884;2023-12-07T05:23:32;1999.90;;;999.90;;
74821;SDS011;63353;48.702;8.884;2023-12-07T05:25:58;1999.90;;;999.90;;
74821;SDS011;63353;48.702;8.884;2023-12-07T05:28:25;1999.90;;;999.90;;
74821;SDS011;63353;48.702;8.884;2023-12-07T05:30:51;1999.90;;;999.90;;
74821;SDS011;63353;48.702;8.884;2023-12-07T05:33:18;1999.90;;;999.90;;
74821;SDS011;63353;48.702;8.884;2023-12-07T05:35:47;1999.90;;;999.90;;
74821;SDS011;63353;48.702;8.884;2023-12-07T05:38:13;1999.90;;;999.90;;
74821;SDS011;63353;48.702;8.884;2023-12-07T05:40:38;1999.90;;;999.90;;
74821;SDS011;63353;48.702;8.884;2023-12-07T05:43:04;1999.90;;;999.90;;
74821;SDS011;63353;48.702;8.884;2023-12-07T05:45:30;1999.90;;;999.90;;
74821;SDS011;63353;48.702;8.884;2023-12-07T05:47:55;1999.90;;;999.90;;
74821;SDS011;63353;48.702;8.884;2023-12-07T05:50:21;1999.90;;;999.90;;
74821;SDS011;63353;48.702;8.884;2023-12-07T05:52:47;1999.90;;;999.90;;
74821;SDS011;63353;48.702;8.884;2023-12-07T05:55:13;1999.90;;;999.90;;
74821;SDS011;63353;48.702;8.884;2023-12-07T05:57:38;1999.90;;;999.90;;
74821;SDS011;63353;48.702;8.884;2023-12-07T06:00:05;1999.90;;;999.90;;
74821;SDS011;63353;48.702;8.884;2023-12-07T06:02:34;1999.90;;;999.90;;
74821;SDS011;63353;48.702;8.884;2023-12-07T06:05:00;1999.90;;;999.90;;
74821;SDS011;63353;48.702;8.884;2023-12-07T06:07:29;1999.90;;;999.90;;
74821;SDS011;63353;48.702;8.884;2023-12-07T06:09:54;1999.90;;;999.90;;
74821;SDS011;63353;48.702;8.884;2023-12-07T06:12:20;1999.90;;;999.90;;
74821;SDS011;63353;48.702;8.884;2023-12-07T06:14:47;1999.90;;;999.90;;
74821;SDS011;63353;48.702;8.884;2023-12-07T06:17:16;1999.90;;;999.90;;
74821;SDS011;63353;48.702;8.884;2023-12-07T06:19:41;1999.90;;;999.90;;
74821;SDS011;63353;48.702;8.884;2023-12-07T06:22:08;1999.90;;;999.90;;
74821;SDS011;63353;48.702;8.884;2023-12-07T06:24:35;1999.90;;;999.90;;
74821;SDS011;63353;48.702;8.884;2023-12-07T06:27:01;1999.90;;;999.90;;
74821;SDS011;63353;48.702;8.884;2023-12-07T06:29:27;1999.90;;;999.90;;
74821;SDS011;63353;48.702;8.884;2023-12-07T06:31:54;1999.90;;;999.90;;
74821;SDS011;63353;48.702;8.884;2023-12-07T06:34:20;1999.90;;;999.90;;
74821;SDS011;63353;48.702;8.884;2023-12-07T06:36:45;1999.90;;;999.90;;
74821;SDS011;63353;48.702;8.884;2023-12-07T06:39:12;1999.90;;;999.90;;
74821;SDS011;63353;48.702;8.884;2023-12-07T06:41:38;1999.90;;;999.90;;
74821;SDS011;63353;48.702;8.884;2023-12-07T06:44:04;1999.90;;;999.90;;
74821;SDS011;63353;48.702;8.884;2023-12-07T06:46:31;1999.90;;;999.90;;
74821;SDS011;63353;48.702;8.884;2023-12-07T06:48:56;1999.90;;;999.90;;
74821;SDS011;63353;48.702;8.884;2023-12-07T06:51:22;1999.90;;;999.90;;
74821;SDS011;63353;48.702;8.884;2023-12-07T06:53:48;1999.90;;;999.90;;
74821;SDS011;63353;48.702;8.884;2023-12-07T06:56:13;1999.90;;;999.90;;
74821;SDS011;63353;48.702;8.884;2023-12-07T06:58:40;1999.90;;;999.90;;
74821;SDS011;63353;48.702;8.884;2023-12-07T07:01:06;1999.90;;;999.90;;
74821;SDS011;63353;48.702;8.884;2023-12-07T07:03:31;1999.90;;;999.90;;
74821;SDS011;63353;48.702;8.884;2023-12-07T07:05:57;1999.90;;;999.90;;
74821;SDS011;63353;48.702;8.884;2023-12-07T07:08:24;1999.90;;;999.90;;
74821;SDS011;63353;48.702;8.884;2023-12-07T07:10:50;1999.90;;;999.90;;
74821;SDS011;63353;48.702;8.884;2023-12-07T07:13:16;1999.90;;;999.90;;
74821;SDS011;63353;48.702;8.884;2023-12-07T07:15:42;1999.90;;;999.90;;
74821;SDS011;63353;48.702;8.884;2023-12-07T07:18:11;1999.90;;;999.90;;
74821;SDS011;63353;48.702;8.884;2023-12-07T07:20:38;1999.90;;;999.90;;
74821;SDS011;63353;48.702;8.884;2023-12-07T07:23:04;1999.90;;;999.90;;
74821;SDS011;63353;48.702;8.884;2023-12-07T07:25:30;1999.90;;;999.90;;
74821;SDS011;63353;48.702;8.884;2023-12-07T07:27:55;1999.90;;;999.90;;
74821;SDS011;63353;48.702;8.884;2023-12-07T07:30:21;1999.90;;;999.90;;
74821;SDS011;63353;48.702;8.884;2023-12-07T07:32:47;1999.90;;;999.90;;
74821;SDS011;63353;48.702;8.884;2023-12-07T07:35:13;1999.90;;;999.90;;
74821;SDS011;63353;48.702;8.884;2023-12-07T07:37:39;1999.90;;;999.90;;
74821;SDS011;63353;48.702;8.884;2023-12-07T07:40:06;1999.90;;;999.90;;
74821;SDS011;63353;48.702;8.884;2023-12-07T07:42:33;1999.90;;;999.90;;
74821;SDS011;63353;48.702;8.884;2023-12-07T07:44:59;1999.90;;;999.90;;
74821;SDS011;63353;48.702;8.884;2023-12-07T07:47:24;1999.90;;;999.90;;
74821;SDS011;63353;48.702;8.884;2023-12-07T07:49:50;1999.90;;;999.90;;
74821;SDS011;63353;48.702;8.884;2023-12-07T07:52:15;1999.90;;;999.90;;
74821;SDS011;63353;48.702;8.884;2023-12-07T07:54:42;1999.90;;;999.90;;
74821;SDS011;63353;48.702;8.884;2023-12-07T07:57:08;1999.90;;;999.90;;
74821;SDS011;63353;48.702;8.884;2023-12-07T07:59:33;1999.90;;;999.90;;
74821;SDS011;63353;48.702;8.884;2023-12-07T08:01:59;1999.90;;;999.90;;
74821;SDS011;63353;48.702;8.884;2023-12-07T08:04:24;1999.90;;;999.90;;
74821;SDS011;63353;48.702;8.884;2023-12-07T08:06:50;1999.90;;;999.90;;
74821;SDS011;63353;48.702;8.884;2023-12-07T08:09:16;1999.90;;;999.90;;
74821;SDS011;63353;48.702;8.884;2023-12-07T08:11:41;1999.90;;;999.90;;
74821;SDS011;63353;48.702;8.884;2023-12-07T08:14:07;1999.90;;;999.90;;
74821;SDS011;63353;48.702;8.884;2023-12-07T08:16:33;1999.90;;;999.90;;
74821;SDS011;63353;48.702;8.884;2023-12-07T08:18:59;1999.90;;;999.90;;
74821;SDS011;63353;48.702;8.884;2023-12-07T08:21:25;1999.90;;;999.90;;
74821;SDS011;63353;48.702;8.884;2023-12-07T08:23:51;1999.90;;;999.90;;
74821;SDS011;63353;48.702;8.884;2023-12-07T08:26:17;1999.90;;;999.90;;
74821;SDS011;63353;48.702;8.884;2023-12-07T08:28:43;1999.90;;;999.90;;
74821;SDS011;63353;48.702;8.884;2023-12-07T08:31:09;1999.90;;;999.90;;
74821;SDS011;63353;48.702;8.884;2023-12-07T08:33:35;1999.90;;;999.90;;
74821;SDS011;63353;48.702;8.884;2023-12-07T08:36:02;1999.90;;;999.90;;
74821;SDS011;63353;48.702;8.884;2023-12-07T08:38:28;1999.90;;;999.90;;
74821;SDS011;63353;48.702;8.884;2023-12-07T08:40:54;1999.90;;;999.90;;
74821;SDS011;63353;48.702;8.884;2023-12-07T08:43:21;1999.90;;;999.90;;
74821;SDS011;63353;48.702;8.884;2023-12-07T08:45:50;1999.90;;;999.90;;
74821;SDS011;63353;48.702;8.884;2023-12-07T08:48:16;1999.90;;;999.90;;
74821;SDS011;63353;48.702;8.884;2023-12-07T08:50:44;1999.90;;;999.90;;
74821;SDS011;63353;48.702;8.884;2023-12-07T08:53:09;1999.90;;;999.90;;
74821;SDS011;63353;48.702;8.884;2023-12-07T08:55:35;1999.90;;;999.90;;
74821;SDS011;63353;48.702;8.884;2023-12-07T08:58:01;1999.90;;;999.90;;
74821;SDS011;63353;48.702;8.884;2023-12-07T09:00:30;1999.90;;;999.90;;
74821;SDS011;63353;48.702;8.884;2023-12-07T09:02:56;1999.90;;;999.90;;
74821;SDS011;63353;48.702;8.884;2023-12-07T09:05:22;1999.90;;;999.90;;
74821;SDS011;63353;48.702;8.884;2023-12-07T09:07:48;1999.90;;;999.90;;
74821;SDS011;63353;48.702;8.884;2023-12-07T09:10:13;1999.90;;;999.90;;
74821;SDS011;63353;48.702;8.884;2023-12-07T09:12:39;1999.90;;;999.90;;
74821;SDS011;63353;48.702;8.884;2023-12-07T09:15:05;1999.90;;;999.90;;
74821;SDS011;63353;48.702;8.884;2023-12-07T09:17:34;1999.90;;;999.90;;
74821;SDS011;63353;48.702;8.884;2023-12-07T09:20:03;1999.90;;;999.90;;
74821;SDS011;63353;48.702;8.884;2023-12-07T09:22:43;1999.90;;;999.90;;
74821;SDS011;63353;48.702;8.884;2023-12-07T09:25:10;1999.90;;;999.90;;
74821;SDS011;63353;48.702;8.884;2023-12-07T09:27:36;1999.90;;;999.90;;
74821;SDS011;63353;48.702;8.884;2023-12-07T09:30:04;1999.90;;;999.90;;
74821;SDS011;63353;48.702;8.884;2023-12-07T09:32:31;1999.90;;;999.90;;
74821;SDS011;63353;48.702;8.884;2023-12-07T09:34:58;1999.90;;;999.90;;
74821;SDS011;63353;48.702;8.884;2023-12-07T09:37:24;1999.90;;;999.90;;
74821;SDS011;63353;48.702;8.884;2023-12-07T09:39:49;1999.90;;;999.90;;
74821;SDS011;63353;48.702;8.884;2023-12-07T09:42:15;1999.90;;;999.90;;
74821;SDS011;63353;48.702;8.884;2023-12-07T09:44:40;1999.90;;;999.90;;
74821;SDS011;63353;48.702;8.884;2023-12-07T09:47:06;1999.90;;;999.90;;
74821;SDS011;63353;48.702;8.884;2023-12-07T09:49:32;1382.23;;;710.23;;
74821;SDS011;63353;48.702;8.884;2023-12-07T09:51:58;263.43;;;206.57;;
74821;SDS011;63353;48.702;8.884;2023-12-07T09:54:26;1999.90;;;999.90;;
74821;SDS011;63353;48.702;8.884;2023-12-07T09:56:53;238.93;;;216.67;;
74821;SDS011;63353;48.702;8.884;2023-12-07T09:59:20;303.23;;;278.67;;
74821;SDS011;63353;48.702;8.884;2023-12-07T10:01:45;159.67;;;148.17;;
74821;SDS011;63353;48.702;8.884;2023-12-07T10:04:14;349.73;;;328.87;;
74821;SDS011;63353;48.702;8.884;2023-12-07T10:06:44;308.80;;;288.47;;
74821;SDS011;63353;48.702;8.884;2023-12-07T10:09:13;239.47;;;228.33;;
74821;SDS011;63353;48.702;8.884;2023-12-07T10:11:39;195.43;;;185.37;;
74821;SDS011;63353;48.702;8.884;2023-12-07T10:14:06;157.07;;;148.37;;
74821;SDS011;63353;48.702;8.884;2023-12-07T10:16:35;178.03;;;169.03;;
74821;SDS011;63353;48.702;8.884;2023-12-07T10:19:14;119.13;;;114.10;;
74821;SDS011;63353;48.702;8.884;2023-12-07T10:21:42;182.93;;;175.43;;
74821;SDS011;63353;48.702;8.884;2023-12-07T10:24:09;82.03;;;78.07;;
74821;SDS011;63353;48.702;8.884;2023-12-07T10:26:35;108.27;;;103.67;;
74821;SDS011;63353;48.702;8.884;2023-12-07T10:29:03;157.50;;;151.00;;
74821;SDS011;63353;48.702;8.884;2023-12-07T10:31:30;110.20;;;105.43;;
74821;SDS011;63353;48.702;8.884;2023-12-07T10:33:56;108.47;;;103.70;;
74821;SDS011;63353;48.702;8.884;2023-12-07T10:36:22;219.57;;;210.47;;
74821;SDS011;63353;48.702;8.884;2023-12-07T10:38:48;210.60;;;201.80;;
74821;SDS011;63353;48.702;8.884;2023-12-07T10:41:18;195.93;;;187.80;;
74821;SDS011;63353;48.702;8.884;2023-12-07T10:44:07;242.30;;;232.33;;
74821;SDS011;63353;48.702;8.884;2023-12-07T10:46:33;223.47;;;214.10;;
74821;SDS011;63353;48.702;8.884;2023-12-07T10:49:04;137.17;;;131.13;;
74821;SDS011;63353;48.702;8.884;2023-12-07T10:51:34;157.93;;;151.40;;
74821;SDS011;63353;48.702;8.884;2023-12-07T10:54:10;255.87;;;245.40;;
74821;SDS011;63353;48.702;8.884;2023-12-07T10:56:48;163.50;;;156.57;;
74821;SDS011;63353;48.702;8.884;2023-12-07T10:59:16;229.53;;;219.10;;
74821;SDS011;63353;48.702;8.884;2023-12-07T11:01:42;344.20;;;329.93;;
74821;SDS011;63353;48.702;8.884;2023-12-07T11:04:12;258.27;;;247.67;;
74821;SDS011;63353;48.702;8.884;2023-12-07T11:06:40;176.57;;;169.27;;
74821;SDS011;63353;48.702;8.884;2023-12-07T11:09:09;182.33;;;174.83;;
74821;SDS011;63353;48.702;8.884;2023-12-07T11:11:39;201.50;;;193.27;;
74821;SDS011;63353;48.702;8.884;2023-12-07T11:14:07;169.70;;;162.73;;
74821;SDS011;63353;48.702;8.884;2023-12-07T11:16:37;145.43;;;139.23;;
74821;SDS011;63353;48.702;8.884;2023-12-07T11:21:59;90.00;;;86.33;;
74821;SDS011;63353;48.702;8.884;2023-12-07T11:24:26;89.97;;;86.07;;
74821;SDS011;63353;48.702;8.884;2023-12-07T11:26:52;58.97;;;56.37;;
74821;SDS011;63353;48.702;8.884;2023-12-07T11:29:21;124.77;;;119.47;;
74821;SDS011;63353;48.702;8.884;2023-12-07T11:31:51;59.97;;;57.43;;
74821;SDS011;63353;48.702;8.884;2023-12-07T11:37:03;47.30;;;45.30;;
74821;SDS011;63353;48.702;8.884;2023-12-07T11:39:39;88.93;;;85.30;;
74821;SDS011;63353;48.702;8.884;2023-12-07T11:42:15;41.00;;;39.20;;
74821;SDS011;63353;48.702;8.884;2023-12-07T11:44:47;28.23;;;26.93;;
74821;SDS011;63353;48.702;8.884;2023-12-07T11:47:16;26.23;;;25.03;;
74821;SDS011;63353;48.702;8.884;2023-12-07T11:49:43;27.03;;;25.83;;
74821;SDS011;63353;48.702;8.884;2023-12-07T11:52:16;14.80;;;14.10;;
74821;SDS011;63353;48.702;8.884;2023-12-07T11:54:45;25.23;;;24.10;;
74821;SDS011;63353;48.702;8.884;2023-12-07T11:57:15;14.50;;;13.47;;
74821;SDS011;63353;48.702;8.884;2023-12-07T11:59:42;13.33;;;12.53;;
74821;SDS011;63353;48.702;8.884;2023-12-07T12:02:12;14.63;;;13.83;;
74821;SDS011;63353;48.702;8.884;2023-12-07T12:04:38;37.03;;;35.30;;
74821;SDS011;63353;48.702;8.884;2023-12-07T12:07:06;11.00;;;10.50;;
74821;SDS011;63353;48.702;8.884;2023-12-07T12:09:33;18.97;;;17.97;;
74821;SDS011;63353;48.702;8.884;2023-12-07T12:12:00;13.30;;;12.43;;
74821;SDS011;63353;48.702;8.884;2023-12-07T12:14:26;29.40;;;27.77;;
74821;SDS011;63353;48.702;8.884;2023-12-07T12:16:53;20.57;;;19.57;;
74821;SDS011;63353;48.702;8.884;2023-12-07T12:19:18;38.03;;;35.77;;
74821;SDS011;63353;48.702;8.884;2023-12-07T12:21:45;32.33;;;30.47;;
74821;SDS011;63353;48.702;8.884;2023-12-07T12:24:11;33.30;;;31.60;;
74821;SDS011;63353;48.702;8.884;2023-12-07T12:26:40;35.87;;;34.27;;
74821;SDS011;63353;48.702;8.884;2023-12-07T12:29:07;36.57;;;34.90;;
74821;SDS011;63353;48.702;8.884;2023-12-07T12:31:34;34.23;;;32.50;;
74821;SDS011;63353;48.702;8.884;2023-12-07T12:34:01;40.00;;;37.53;;
74821;SDS011;63353;48.702;8.884;2023-12-07T12:36:27;35.73;;;33.83;;
74821;SDS011;63353;48.702;8.884;2023-12-07T12:38:54;39.47;;;37.53;;
74821;SDS011;63353;48.702;8.884;2023-12-07T12:41:23;13.07;;;12.27;;
74821;SDS011;63353;48.702;8.884;2023-12-07T12:43:50;30.40;;;28.47;;
74821;SDS011;63353;48.702;8.884;2023-12-07T12:46:19;46.73;;;44.10;;
74821;SDS011;63353;48.702;8.884;2023-12-07T12:51:22;17.03;;;16.23;;
74821;SDS011;63353;48.702;8.884;2023-12-07T12:53:50;36.87;;;35.13;;
74821;SDS011;63353;48.702;8.884;2023-12-07T12:56:17;19.53;;;18.57;;
74821;SDS011;63353;48.702;8.884;2023-12-07T12:58:44;27.57;;;26.30;;
74821;SDS011;63353;48.702;8.884;2023-12-07T13:01:10;157.10;;;150.63;;
74821;SDS011;63353;48.702;8.884;2023-12-07T13:03:35;197.23;;;188.70;;
74821;SDS011;63353;48.702;8.884;2023-12-07T13:06:01;344.10;;;328.77;;
74821;SDS011;63353;48.702;8.884;2023-12-07T13:08:27;407.07;;;388.27;;
74821;SDS011;63353;48.702;8.884;2023-12-07T13:10:52;387.43;;;369.90;;
74821;SDS011;63353;48.702;8.884;2023-12-07T13:13:18;358.17;;;341.60;;
74821;SDS011;63353;48.702;8.884;2023-12-07T13:15:44;379.47;;;362.07;;
74821;SDS011;63353;48.702;8.884;2023-12-07T13:18:09;376.30;;;359.13;;
74821;SDS011;63353;48.702;8.884;2023-12-07T13:20:35;402.60;;;384.07;;
74821;SDS011;63353;48.702;8.884;2023-12-07T13:23:01;401.53;;;382.87;;
74821;SDS011;63353;48.702;8.884;2023-12-07T13:25:27;176.17;;;169.13;;
74821;SDS011;63353;48.702;8.884;2023-12-07T13:27:52;249.33;;;238.60;;
74821;SDS011;63353;48.702;8.884;2023-12-07T13:30:18;408.37;;;389.93;;
74821;SDS011;63353;48.702;8.884;2023-12-07T13:32:44;502.97;;;479.43;;
74821;SDS011;63353;48.702;8.884;2023-12-07T13:35:13;516.67;;;492.80;;
74821;SDS011;63353;48.702;8.884;2023-12-07T13:37:38;413.23;;;394.90;;
74821;SDS011;63353;48.702;8.884;2023-12-07T13:40:04;312.30;;;298.77;;
74821;SDS011;63353;48.702;8.884;2023-12-07T13:42:35;293.97;;;281.80;;
74821;SDS011;63353;48.702;8.884;2023-12-07T13:45:01;276.27;;;264.57;;
74821;SDS011;63353;48.702;8.884;2023-12-07T13:47:27;255.87;;;245.03;;
74821;SDS011;63353;48.702;8.884;2023-12-07T13:49:57;297.70;;;284.17;;
74821;SDS011;63353;48.702;8.884;2023-12-07T13:52:23;241.73;;;231.27;;
74821;SDS011;63353;48.702;8.884;2023-12-07T13:54:49;366.27;;;349.27;;
74821;SDS011;63353;48.702;8.884;2023-12-07T13:57:15;248.17;;;237.87;;
74821;SDS011;63353;48.702;8.884;2023-12-07T13:59:41;128.53;;;122.83;;